sensor_id;sensor_type;location;lat;lon;timestamp;temperature;humidity
1778;DHT22;71547;50.146;8.174;2023-12-20T00:01:18;4.90;99.90
1778;DHT22;71547;50.146;8.174;2023-12-20T00:03:47;4.90;99.90
1778;DHT22;71547;50.146;8.174;2023-12-20T00:06:18;4.90;99.90
1778;DHT22;71547;50.146;8.174;2023-12-20T00:08:51;4.90;99.90
1778;DHT22;71547;50.146;8.174;2023-12-20T00:11:20;4.90;99.90
1778;DHT22;71547;50.146;8.174;2023-12-20T00:13:49;4.90;99.90
1778;DHT22;71547;50.146;8.174;2023-12-20T00:16:17;4.90;99.90
1778;DHT22;71547;50.146;8.174;2023-12-20T00:18:49;4.90;99.90
1778;DHT22;71547;50.146;8.174;2023-12-20T00:21:16;4.80;99.90
1778;DHT22;71547;50.146;8.174;2023-12-20T00:23:43;4.80;99.90
1778;DHT22;71547;50.146;8.174;2023-12-20T00:26:10;4.80;99.90
1778;DHT22;71547;50.146;8.174;2023-12-20T00:28:37;4.80;99.90
1778;DHT22;71547;50.146;8.174;2023-12-20T00:31:04;4.80;99.90
1778;DHT22;71547;50.146;8.174;2023-12-20T00:33:31;4.80;99.90
1778;DHT22;71547;50.146;8.174;2023-12-20T00:36:00;4.80;99.90
1778;DHT22;71547;50.146;8.174;2023-12-20T00:38:28;4.80;99.90
1778;DHT22;71547;50.146;8.174;2023-12-20T00:40:55;4.90;99.90
1778;DHT22;71547;50.146;8.174;2023-12-20T00:43:22;4.80;99.90
1778;DHT22;71547;50.146;8.174;2023-12-20T00:45:49;4.80;99.90
1778;DHT22;71547;50.146;8.174;2023-12-20T00:48:16;4.80;99.90
1778;DHT22;71547;50.146;8.174;2023-12-20T00:50:43;4.80;99.90
1778;DHT22;71547;50.146;8.174;2023-12-20T00:53:11;4.80;99.90
1778;DHT22;71547;50.146;8.174;2023-12-20T00:55:38;4.80;99.90
1778;DHT22;71547;50.146;8.174;2023-12-20T00:58:07;4.80;99.90
1778;DHT22;71547;50.146;8.174;2023-12-20T01:00:34;4.80;99.90
1778;DHT22;71547;50.146;8.174;2023-12-20T01:03:01;4.80;99.90
1778;DHT22;71547;50.146;8.174;2023-12-20T01:05:28;4.80;99.90
1778;DHT22;71547;50.146;8.174;2023-12-20T01:07:55;4.80;99.90
1778;DHT22;71547;50.146;8.174;2023-12-20T01:10:23;4.80;99.90
1778;DHT22;71547;50.146;8.174;2023-12-20T01:12:54;4.80;99.90
1778;DHT22;71547;50.146;8.174;2023-12-20T01:15:21;4.80;99.90
1778;DHT22;71547;50.146;8.174;2023-12-20T01:17:48;4.70;99.90
1778;DHT22;71547;50.146;8.174;2023-12-20T01:20:16;4.80;99.90
1778;DHT22;71547;50.146;8.174;2023-12-20T01:22:43;4.70;99.90
1778;DHT22;71547;50.146;8.174;2023-12-20T01:25:12;4.80;99.90
1778;DHT22;71547;50.146;8.174;2023-12-20T01:27:41;4.80;99.90
1778;DHT22;71547;50.146;8.174;2023-12-20T01:30:09;4.80;99.90
1778;DHT22;71547;50.146;8.174;2023-12-20T01:32:37;4.80;99.90
1778;DHT22;71547;50.146;8.174;2023-12-20T01:35:04;4.80;99.90
1778;DHT22;71547;50.146;8.174;2023-12-20T01:37:31;4.80;99.90
1778;DHT22;71547;50.146;8.174;2023-12-20T01:39:59;4.80;99.90
1778;DHT22;71547;50.146;8.174;2023-12-20T01:42:26;4.80;99.90
1778;DHT22;71547;50.146;8.174;2023-12-20T01:44:54;4.80;99.90
1778;DHT22;71547;50.146;8.174;2023-12-20T01:47:21;4.80;99.90
1778;DHT22;71547;50.146;8.174;2023-12-20T01:49:50;4.80;99.90
1778;DHT22;71547;50.146;8.174;2023-12-20T01:52:18;4.80;99.90
1778;DHT22;71547;50.146;8.174;2023-12-20T01:54:45;4.80;99.90
1778;DHT22;71547;50.146;8.174;2023-12-20T01:57:14;4.80;99.90
1778;DHT22;71547;50.146;8.174;2023-12-20T01:59:41;4.90;99.90
1778;DHT22;71547;50.146;8.174;2023-12-20T02:02:09;4.90;99.90
1778;DHT22;71547;50.146;8.174;2023-12-20T02:04:39;4.90;99.90
1778;DHT22;71547;50.146;8.174;2023-12-20T02:07:07;4.90;99.90
1778;DHT22;71547;50.146;8.174;2023-12-20T02:09:35;4.90;99.90
1778;DHT22;71547;50.146;8.174;2023-12-20T02:12:03;4.80;99.90
1778;DHT22;71547;50.146;8.174;2023-12-20T02:14:30;4.80;99.90
1778;DHT22;71547;50.146;8.174;2023-12-20T02:16:57;4.90;99.90
1778;DHT22;71547;50.146;8.174;2023-12-20T02:19:26;4.90;99.90
1778;DHT22;71547;50.146;8.174;2023-12-20T02:22:07;5.00;99.90
1778;DHT22;71547;50.146;8.174;2023-12-20T02:24:35;4.90;99.90
1778;DHT22;71547;50.146;8.174;2023-12-20T02:27:03;4.90;99.90
1778;DHT22;71547;50.146;8.174;2023-12-20T02:29:30;4.90;99.90
1778;DHT22;71547;50.146;8.174;2023-12-20T02:31:58;4.90;99.90
1778;DHT22;71547;50.146;8.174;2023-12-20T02:34:25;4.90;99.90
1778;DHT22;71547;50.146;8.174;2023-12-20T02:36:52;4.90;99.90
1778;DHT22;71547;50.146;8.174;2023-12-20T02:39:21;4.90;99.90
1778;DHT22;71547;50.146;8.174;2023-12-20T02:41:49;4.90;99.90
1778;DHT22;71547;50.146;8.174;2023-12-20T02:44:16;4.90;99.90
1778;DHT22;71547;50.146;8.174;2023-12-20T02:46:45;4.90;99.90
1778;DHT22;71547;50.146;8.174;2023-12-20T02:49:12;5.00;99.90
1778;DHT22;71547;50.146;8.174;2023-12-20T02:51:39;4.90;99.90
1778;DHT22;71547;50.146;8.174;2023-12-20T02:54:06;5.00;99.90
1778;DHT22;71547;50.146;8.174;2023-12-20T02:56:35;5.00;99.90
1778;DHT22;71547;50.146;8.174;2023-12-20T02:59:02;5.00;99.90
1778;DHT22;71547;50.146;8.174;2023-12-20T03:01:32;5.00;99.90
1778;DHT22;71547;50.146;8.174;2023-12-20T03:03:59;5.00;99.90
1778;DHT22;71547;50.146;8.174;2023-12-20T03:06:26;5.00;99.90
1778;DHT22;71547;50.146;8.174;2023-12-20T03:08:53;5.00;99.90
1778;DHT22;71547;50.146;8.174;2023-12-20T03:11:20;5.00;99.90
1778;DHT22;71547;50.146;8.174;2023-12-20T03:13:48;5.00;99.90
1778;DHT22;71547;50.146;8.174;2023-12-20T03:16:16;5.00;99.90
1778;DHT22;71547;50.146;8.174;2023-12-20T03:18:43;5.00;99.90
1778;DHT22;71547;50.146;8.174;2023-12-20T03:21:10;5.00;99.90
1778;DHT22;71547;50.146;8.174;2023-12-20T03:23:37;5.10;99.90
1778;DHT22;71547;50.146;8.174;2023-12-20T03:26:06;5.10;99.90
1778;DHT22;71547;50.146;8.174;2023-12-20T03:28:34;5.10;99.90
1778;DHT22;71547;50.146;8.174;2023-12-20T03:31:04;5.10;99.90
1778;DHT22;71547;50.146;8.174;2023-12-20T03:33:31;5.10;99.90
1778;DHT22;71547;50.146;8.174;2023-12-20T03:35:58;5.20;99.90
1778;DHT22;71547;50.146;8.174;2023-12-20T03:38:25;5.20;99.90
1778;DHT22;71547;50.146;8.174;2023-12-20T03:40:52;5.20;99.90
1778;DHT22;71547;50.146;8.174;2023-12-20T03:43:19;5.20;99.90
1778;DHT22;71547;50.146;8.174;2023-12-20T03:45:46;5.30;99.90
1778;DHT22;71547;50.146;8.174;2023-12-20T03:48:15;5.30;99.90
1778;DHT22;71547;50.146;8.174;2023-12-20T03:50:42;5.30;99.90
1778;DHT22;71547;50.146;8.174;2023-12-20T03:53:09;5.30;99.90
1778;DHT22;71547;50.146;8.174;2023-12-20T03:55:37;5.30;99.90
1778;DHT22;71547;50.146;8.174;2023-12-20T03:58:04;5.30;99.90
1778;DHT22;71547;50.146;8.174;2023-12-20T04:00:31;5.40;99.90
1778;DHT22;71547;50.146;8.174;2023-12-20T04:02:58;5.40;99.90
1778;DHT22;71547;50.146;8.174;2023-12-20T04:05:26;5.40;99.90
1778;DHT22;71547;50.146;8.174;2023-12-20T04:07:53;5.40;99.90
1778;DHT22;71547;50.146;8.174;2023-12-20T04:10:20;5.40;99.90
1778;DHT22;71547;50.146;8.174;2023-12-20T04:12:48;5.40;99.90
1778;DHT22;71547;50.146;8.174;2023-12-20T04:15:17;5.40;99.90
1778;DHT22;71547;50.146;8.174;2023-12-20T04:17:46;5.30;99.90
1778;DHT22;71547;50.146;8.174;2023-12-20T04:20:14;5.30;99.90
1778;DHT22;71547;50.146;8.174;2023-12-20T04:22:43;5.30;99.90
1778;DHT22;71547;50.146;8.174;2023-12-20T04:25:10;5.30;99.90
1778;DHT22;71547;50.146;8.174;2023-12-20T04:27:37;5.30;99.90
1778;DHT22;71547;50.146;8.174;2023-12-20T04:30:05;5.30;99.90
1778;DHT22;71547;50.146;8.174;2023-12-20T04:32:34;5.20;99.90
1778;DHT22;71547;50.146;8.174;2023-12-20T04:35:01;5.20;99.90
1778;DHT22;71547;50.146;8.174;2023-12-20T04:37:29;5.10;99.90
1778;DHT22;71547;50.146;8.174;2023-12-20T04:39:57;5.10;99.90
1778;DHT22;71547;50.146;8.174;2023-12-20T04:42:24;5.00;99.90
1778;DHT22;71547;50.146;8.174;2023-12-20T04:44:51;4.80;99.90
1778;DHT22;71547;50.146;8.174;2023-12-20T04:47:18;4.80;99.90
1778;DHT22;71547;50.146;8.174;2023-12-20T04:49:45;4.80;99.90
1778;DHT22;71547;50.146;8.174;2023-12-20T04:52:13;4.70;99.90
1778;DHT22;71547;50.146;8.174;2023-12-20T04:54:41;4.60;99.90
1778;DHT22;71547;50.146;8.174;2023-12-20T04:57:12;4.50;99.90
1778;DHT22;71547;50.146;8.174;2023-12-20T04:59:39;4.50;99.90
1778;DHT22;71547;50.146;8.174;2023-12-20T05:02:06;4.50;99.90
1778;DHT22;71547;50.146;8.174;2023-12-20T05:04:33;4.50;99.90
1778;DHT22;71547;50.146;8.174;2023-12-20T05:07:00;4.40;99.90
1778;DHT22;71547;50.146;8.174;2023-12-20T05:09:27;4.40;99.90
1778;DHT22;71547;50.146;8.174;2023-12-20T05:11:54;4.30;99.90
1778;DHT22;71547;50.146;8.174;2023-12-20T05:14:23;4.40;99.90
1778;DHT22;71547;50.146;8.174;2023-12-20T05:16:51;4.40;99.90
1778;DHT22;71547;50.146;8.174;2023-12-20T05:19:18;4.30;99.90
1778;DHT22;71547;50.146;8.174;2023-12-20T05:21:45;4.30;99.90
1778;DHT22;71547;50.146;8.174;2023-12-20T05:24:12;4.30;99.90
1778;DHT22;71547;50.146;8.174;2023-12-20T05:26:39;4.30;99.90
1778;DHT22;71547;50.146;8.174;2023-12-20T05:29:06;4.30;99.90
1778;DHT22;71547;50.146;8.174;2023-12-20T05:31:35;4.30;99.90
1778;DHT22;71547;50.146;8.174;2023-12-20T05:34:02;4.30;99.90
1778;DHT22;71547;50.146;8.174;2023-12-20T05:36:29;4.40;99.90
1778;DHT22;71547;50.146;8.174;2023-12-20T05:38:56;4.40;99.90
1778;DHT22;71547;50.146;8.174;2023-12-20T05:41:23;4.30;99.90
1778;DHT22;71547;50.146;8.174;2023-12-20T05:43:50;4.30;99.90
1778;DHT22;71547;50.146;8.174;2023-12-20T05:46:17;4.20;99.90
1778;DHT22;71547;50.146;8.174;2023-12-20T05:48:46;4.30;99.90
1778;DHT22;71547;50.146;8.174;2023-12-20T05:51:13;4.30;99.90
1778;DHT22;71547;50.146;8.174;2023-12-20T05:53:40;4.30;99.90
1778;DHT22;71547;50.146;8.174;2023-12-20T05:56:07;4.20;99.90
1778;DHT22;71547;50.146;8.174;2023-12-20T05:58:34;4.20;99.90
1778;DHT22;71547;50.146;8.174;2023-12-20T06:01:03;4.20;99.90
1778;DHT22;71547;50.146;8.174;2023-12-20T06:03:31;4.10;99.90
1778;DHT22;71547;50.146;8.174;2023-12-20T06:06:03;4.10;99.90
1778;DHT22;71547;50.146;8.174;2023-12-20T06:08:42;4.10;99.90
1778;DHT22;71547;50.146;8.174;2023-12-20T06:11:10;4.10;99.90
1778;DHT22;71547;50.146;8.174;2023-12-20T06:13:38;4.10;99.90
1778;DHT22;71547;50.146;8.174;2023-12-20T06:16:05;4.00;99.90
1778;DHT22;71547;50.146;8.174;2023-12-20T06:18:34;4.00;99.90
1778;DHT22;71547;50.146;8.174;2023-12-20T06:21:03;4.00;99.90
1778;DHT22;71547;50.146;8.174;2023-12-20T06:23:31;3.90;99.90
1778;DHT22;71547;50.146;8.174;2023-12-20T06:25:58;3.90;99.90
1778;DHT22;71547;50.146;8.174;2023-12-20T06:28:25;3.90;99.90
1778;DHT22;71547;50.146;8.174;2023-12-20T06:30:52;3.90;99.90
1778;DHT22;71547;50.146;8.174;2023-12-20T06:33:21;3.90;99.90
1778;DHT22;71547;50.146;8.174;2023-12-20T06:35:49;3.90;99.90
1778;DHT22;71547;50.146;8.174;2023-12-20T06:38:18;3.80;99.90
1778;DHT22;71547;50.146;8.174;2023-12-20T06:40:46;3.80;99.90
1778;DHT22;71547;50.146;8.174;2023-12-20T06:43:13;3.80;99.90
1778;DHT22;71547;50.146;8.174;2023-12-20T06:45:58;3.70;99.90
1778;DHT22;71547;50.146;8.174;2023-12-20T06:48:25;3.80;99.90
1778;DHT22;71547;50.146;8.174;2023-12-20T06:50:52;3.70;99.90
1778;DHT22;71547;50.146;8.174;2023-12-20T06:53:21;3.70;99.90
1778;DHT22;71547;50.146;8.174;2023-12-20T06:55:48;3.80;99.90
1778;DHT22;71547;50.146;8.174;2023-12-20T06:58:15;3.70;99.90
1778;DHT22;71547;50.146;8.174;2023-12-20T07:00:43;3.70;99.90
1778;DHT22;71547;50.146;8.174;2023-12-20T07:03:10;3.70;99.90
1778;DHT22;71547;50.146;8.174;2023-12-20T07:05:37;3.70;99.90
1778;DHT22;71547;50.146;8.174;2023-12-20T07:08:06;3.70;99.90
1778;DHT22;71547;50.146;8.174;2023-12-20T07:10:35;3.70;99.90
1778;DHT22;71547;50.146;8.174;2023-12-20T07:13:04;3.80;99.90
1778;DHT22;71547;50.146;8.174;2023-12-20T07:15:34;3.80;99.90
1778;DHT22;71547;50.146;8.174;2023-12-20T07:18:04;3.70;99.90
1778;DHT22;71547;50.146;8.174;2023-12-20T07:20:32;3.80;99.90
1778;DHT22;71547;50.146;8.174;2023-12-20T07:23:00;3.80;99.90
1778;DHT22;71547;50.146;8.174;2023-12-20T07:25:27;3.80;99.90
1778;DHT22;71547;50.146;8.174;2023-12-20T07:27:56;3.80;99.90
1778;DHT22;71547;50.146;8.174;2023-12-20T07:30:23;3.80;99.90
1778;DHT22;71547;50.146;8.174;2023-12-20T07:32:50;3.80;99.90
1778;DHT22;71547;50.146;8.174;2023-12-20T07:35:17;3.80;99.90
1778;DHT22;71547;50.146;8.174;2023-12-20T07:37:44;3.80;99.90
1778;DHT22;71547;50.146;8.174;2023-12-20T07:40:12;3.80;99.90
1778;DHT22;71547;50.146;8.174;2023-12-20T07:42:40;3.90;99.90
1778;DHT22;71547;50.146;8.174;2023-12-20T07:45:09;3.90;99.90
1778;DHT22;71547;50.146;8.174;2023-12-20T07:47:37;3.90;99.90
1778;DHT22;71547;50.146;8.174;2023-12-20T07:50:05;3.90;99.90
1778;DHT22;71547;50.146;8.174;2023-12-20T07:52:33;3.90;99.90
1778;DHT22;71547;50.146;8.174;2023-12-20T07:55:00;4.00;99.90
1778;DHT22;71547;50.146;8.174;2023-12-20T07:57:29;4.00;99.90
1778;DHT22;71547;50.146;8.174;2023-12-20T07:59:56;4.00;99.90
1778;DHT22;71547;50.146;8.174;2023-12-20T08:02:25;4.00;99.90
1778;DHT22;71547;50.146;8.174;2023-12-20T08:04:52;4.00;99.90
1778;DHT22;71547;50.146;8.174;2023-12-20T08:07:19;4.10;99.90
1778;DHT22;71547;50.146;8.174;2023-12-20T08:09:46;4.10;99.90
1778;DHT22;71547;50.146;8.174;2023-12-20T08:12:13;4.10;99.90
1778;DHT22;71547;50.146;8.174;2023-12-20T08:14:40;4.10;99.90
1778;DHT22;71547;50.146;8.174;2023-12-20T08:17:07;4.20;99.90
1778;DHT22;71547;50.146;8.174;2023-12-20T08:19:35;4.20;99.90
1778;DHT22;71547;50.146;8.174;2023-12-20T08:22:05;4.20;99.90
1778;DHT22;71547;50.146;8.174;2023-12-20T08:24:33;4.20;99.90
1778;DHT22;71547;50.146;8.174;2023-12-20T08:27:00;4.30;99.90
1778;DHT22;71547;50.146;8.174;2023-12-20T08:29:27;4.20;99.90
1778;DHT22;71547;50.146;8.174;2023-12-20T08:31:54;4.20;99.90
1778;DHT22;71547;50.146;8.174;2023-12-20T08:34:22;4.20;99.90
1778;DHT22;71547;50.146;8.174;2023-12-20T08:36:51;4.20;99.90
1778;DHT22;71547;50.146;8.174;2023-12-20T08:39:18;4.20;99.90
1778;DHT22;71547;50.146;8.174;2023-12-20T08:41:45;4.30;99.90
1778;DHT22;71547;50.146;8.174;2023-12-20T08:44:13;4.30;99.90
1778;DHT22;71547;50.146;8.174;2023-12-20T08:46:40;4.30;99.90
1778;DHT22;71547;50.146;8.174;2023-12-20T08:49:07;4.40;99.90
1778;DHT22;71547;50.146;8.174;2023-12-20T08:51:35;4.40;99.90
1778;DHT22;71547;50.146;8.174;2023-12-20T08:54:04;4.30;99.90
1778;DHT22;71547;50.146;8.174;2023-12-20T08:56:34;4.40;99.90
1778;DHT22;71547;50.146;8.174;2023-12-20T08:59:01;4.40;99.90
1778;DHT22;71547;50.146;8.174;2023-12-20T09:01:29;4.50;99.90
1778;DHT22;71547;50.146;8.174;2023-12-20T09:03:56;4.50;99.90
1778;DHT22;71547;50.146;8.174;2023-12-20T09:06:23;4.50;99.90
1778;DHT22;71547;50.146;8.174;2023-12-20T09:08:51;4.50;99.90
1778;DHT22;71547;50.146;8.174;2023-12-20T09:11:20;4.50;99.90
1778;DHT22;71547;50.146;8.174;2023-12-20T09:13:47;4.60;99.90
1778;DHT22;71547;50.146;8.174;2023-12-20T09:16:14;4.60;99.90
1778;DHT22;71547;50.146;8.174;2023-12-20T09:18:42;4.60;99.90
1778;DHT22;71547;50.146;8.174;2023-12-20T09:21:10;4.60;99.90
1778;DHT22;71547;50.146;8.174;2023-12-20T09:23:37;4.60;99.90
1778;DHT22;71547;50.146;8.174;2023-12-20T09:26:04;4.70;99.90
1778;DHT22;71547;50.146;8.174;2023-12-20T09:28:33;4.70;99.90
1778;DHT22;71547;50.146;8.174;2023-12-20T09:31:04;4.70;99.90
1778;DHT22;71547;50.146;8.174;2023-12-20T09:33:32;4.80;99.90
1778;DHT22;71547;50.146;8.174;2023-12-20T09:35:59;4.80;99.90
1778;DHT22;71547;50.146;8.174;2023-12-20T09:38:27;4.80;99.90
1778;DHT22;71547;50.146;8.174;2023-12-20T09:40:54;4.80;99.90
1778;DHT22;71547;50.146;8.174;2023-12-20T09:43:24;4.90;99.90
1778;DHT22;71547;50.146;8.174;2023-12-20T09:46:00;4.90;99.90
1778;DHT22;71547;50.146;8.174;2023-12-20T09:48:29;4.90;99.90
1778;DHT22;71547;50.146;8.174;2023-12-20T09:50:57;5.00;99.90
1778;DHT22;71547;50.146;8.174;2023-12-20T09:53:25;5.00;99.90
1778;DHT22;71547;50.146;8.174;2023-12-20T09:55:58;5.00;99.90
1778;DHT22;71547;50.146;8.174;2023-12-20T09:58:26;5.00;99.90
1778;DHT22;71547;50.146;8.174;2023-12-20T10:00:55;5.10;99.90
1778;DHT22;71547;50.146;8.174;2023-12-20T10:03:25;5.10;99.90
1778;DHT22;71547;50.146;8.174;2023-12-20T10:05:57;5.10;99.90
1778;DHT22;71547;50.146;8.174;2023-12-20T10:08:25;5.10;99.90
1778;DHT22;71547;50.146;8.174;2023-12-20T10:10:52;5.10;99.90
1778;DHT22;71547;50.146;8.174;2023-12-20T10:13:19;5.10;99.90
1778;DHT22;71547;50.146;8.174;2023-12-20T10:15:46;5.20;99.90
1778;DHT22;71547;50.146;8.174;2023-12-20T10:18:14;5.20;99.90
1778;DHT22;71547;50.146;8.174;2023-12-20T10:20:44;5.30;99.90
1778;DHT22;71547;50.146;8.174;2023-12-20T10:23:12;5.30;99.90
1778;DHT22;71547;50.146;8.174;2023-12-20T10:25:40;5.30;99.90
1778;DHT22;71547;50.146;8.174;2023-12-20T10:28:09;5.30;99.90
1778;DHT22;71547;50.146;8.174;2023-12-20T10:30:38;5.30;99.90
1778;DHT22;71547;50.146;8.174;2023-12-20T10:33:06;5.30;99.90
1778;DHT22;71547;50.146;8.174;2023-12-20T10:35:34;5.30;99.90
1778;DHT22;71547;50.146;8.174;2023-12-20T10:38:05;5.40;99.90
1778;DHT22;71547;50.146;8.174;2023-12-20T10:40:34;5.40;99.90
1778;DHT22;71547;50.146;8.174;2023-12-20T10:43:04;5.50;99.90
1778;DHT22;71547;50.146;8.174;2023-12-20T10:45:32;5.40;99.90
1778;DHT22;71547;50.146;8.174;2023-12-20T10:47:59;5.50;99.90
1778;DHT22;71547;50.146;8.174;2023-12-20T10:50:27;5.60;99.90
1778;DHT22;71547;50.146;8.174;2023-12-20T10:52:55;5.60;99.90
1778;DHT22;71547;50.146;8.174;2023-12-20T10:55:32;5.50;99.90
1778;DHT22;71547;50.146;8.174;2023-12-20T10:58:09;5.50;99.90
1778;DHT22;71547;50.146;8.174;2023-12-20T11:01:02;5.50;99.90
1778;DHT22;71547;50.146;8.174;2023-12-20T11:03:34;5.50;99.90
1778;DHT22;71547;50.146;8.174;2023-12-20T11:06:07;5.60;99.90
1778;DHT22;71547;50.146;8.174;2023-12-20T11:08:47;5.60;99.90
1778;DHT22;71547;50.146;8.174;2023-12-20T11:11:21;5.70;99.90
1778;DHT22;71547;50.146;8.174;2023-12-20T11:13:57;5.70;99.90
1778;DHT22;71547;50.146;8.174;2023-12-20T11:16:27;5.80;99.90
1778;DHT22;71547;50.146;8.174;2023-12-20T11:19:07;5.80;99.90
1778;DHT22;71547;50.146;8.174;2023-12-20T11:21:34;5.90;99.90
1778;DHT22;71547;50.146;8.174;2023-12-20T11:24:02;5.90;99.90
1778;DHT22;71547;50.146;8.174;2023-12-20T11:26:32;5.90;99.90
1778;DHT22;71547;50.146;8.174;2023-12-20T11:29:29;5.80;99.90
1778;DHT22;71547;50.146;8.174;2023-12-20T11:31:56;5.80;99.90
1778;DHT22;71547;50.146;8.174;2023-12-20T11:34:27;5.70;99.90
1778;DHT22;71547;50.146;8.174;2023-12-20T11:37:03;5.70;99.90
1778;DHT22;71547;50.146;8.174;2023-12-20T11:39:31;5.70;99.90
1778;DHT22;71547;50.146;8.174;2023-12-20T11:42:06;5.70;99.90
1778;DHT22;71547;50.146;8.174;2023-12-20T11:44:33;5.70;99.90
1778;DHT22;71547;50.146;8.174;2023-12-20T11:47:07;5.60;99.90
1778;DHT22;71547;50.146;8.174;2023-12-20T11:49:34;5.60;99.90
1778;DHT22;71547;50.146;8.174;2023-12-20T11:52:04;5.60;99.90
1778;DHT22;71547;50.146;8.174;2023-12-20T11:54:33;5.70;99.90
1778;DHT22;71547;50.146;8.174;2023-12-20T11:57:02;5.80;99.90
1778;DHT22;71547;50.146;8.174;2023-12-20T11:59:30;5.80;99.90
1778;DHT22;71547;50.146;8.174;2023-12-20T12:02:01;5.70;99.90
1778;DHT22;71547;50.146;8.174;2023-12-20T12:04:34;5.70;99.90
1778;DHT22;71547;50.146;8.174;2023-12-20T12:07:01;5.70;99.90
1778;DHT22;71547;50.146;8.174;2023-12-20T12:09:29;5.70;99.90
1778;DHT22;71547;50.146;8.174;2023-12-20T12:11:57;5.80;99.90
1778;DHT22;71547;50.146;8.174;2023-12-20T12:14:25;5.70;99.90
1778;DHT22;71547;50.146;8.174;2023-12-20T12:16:52;5.80;99.90
1778;DHT22;71547;50.146;8.174;2023-12-20T12:19:20;5.70;99.90
1778;DHT22;71547;50.146;8.174;2023-12-20T12:21:52;5.80;99.90
1778;DHT22;71547;50.146;8.174;2023-12-20T12:24:40;5.80;99.90
1778;DHT22;71547;50.146;8.174;2023-12-20T12:27:12;5.80;99.90
1778;DHT22;71547;50.146;8.174;2023-12-20T12:30:01;5.80;99.90
1778;DHT22;71547;50.146;8.174;2023-12-20T12:32:29;5.90;99.90
1778;DHT22;71547;50.146;8.174;2023-12-20T12:34:56;5.90;99.90
1778;DHT22;71547;50.146;8.174;2023-12-20T12:37:23;5.90;99.90
1778;DHT22;71547;50.146;8.174;2023-12-20T12:39:53;5.90;99.90
1778;DHT22;71547;50.146;8.174;2023-12-20T12:42:21;5.90;99.90
1778;DHT22;71547;50.146;8.174;2023-12-20T12:44:53;5.80;99.90
1778;DHT22;71547;50.146;8.174;2023-12-20T12:47:20;5.80;99.90
1778;DHT22;71547;50.146;8.174;2023-12-20T12:49:50;5.80;99.90
1778;DHT22;71547;50.146;8.174;2023-12-20T12:52:18;5.80;99.90
1778;DHT22;71547;50.146;8.174;2023-12-20T12:54:45;5.80;99.90
1778;DHT22;71547;50.146;8.174;2023-12-20T12:57:14;5.90;99.90
1778;DHT22;71547;50.146;8.174;2023-12-20T12:59:42;5.90;99.90
1778;DHT22;71547;50.146;8.174;2023-12-20T13:02:13;6.00;99.90
1778;DHT22;71547;50.146;8.174;2023-12-20T13:04:41;6.00;99.90
1778;DHT22;71547;50.146;8.174;2023-12-20T13:07:09;6.10;99.90
1778;DHT22;71547;50.146;8.174;2023-12-20T13:09:38;6.10;99.90
1778;DHT22;71547;50.146;8.174;2023-12-20T13:12:07;6.20;99.90
1778;DHT22;71547;50.146;8.174;2023-12-20T13:14:35;6.20;99.90
1778;DHT22;71547;50.146;8.174;2023-12-20T13:17:08;6.20;99.90
1778;DHT22;71547;50.146;8.174;2023-12-20T13:19:45;6.20;99.90
1778;DHT22;71547;50.146;8.174;2023-12-20T13:22:12;6.10;99.90
1778;DHT22;71547;50.146;8.174;2023-12-20T13:24:39;6.10;99.90
1778;DHT22;71547;50.146;8.174;2023-12-20T13:27:07;6.10;99.90
1778;DHT22;71547;50.146;8.174;2023-12-20T13:29:34;6.10;99.90
1778;DHT22;71547;50.146;8.174;2023-12-20T13:32:05;6.10;99.90
1778;DHT22;71547;50.146;8.174;2023-12-20T13:34:34;6.10;99.90
1778;DHT22;71547;50.146;8.174;2023-12-20T13:37:01;6.20;99.90
1778;DHT22;71547;50.146;8.174;2023-12-20T13:39:28;6.20;99.90
1778;DHT22;71547;50.146;8.174;2023-12-20T13:41:56;6.20;99.90
1778;DHT22;71547;50.146;8.174;2023-12-20T13:44:26;6.20;99.90
1778;DHT22;71547;50.146;8.174;2023-12-20T13:46:54;6.20;99.90
1778;DHT22;71547;50.146;8.174;2023-12-20T13:49:21;6.10;99.90
1778;DHT22;71547;50.146;8.174;2023-12-20T13:51:53;6.10;99.90
1778;DHT22;71547;50.146;8.174;2023-12-20T13:54:21;6.10;99.90
1778;DHT22;71547;50.146;8.174;2023-12-20T13:56:49;6.00;99.90
1778;DHT22;71547;50.146;8.174;2023-12-20T13:59:34;6.00;99.90
1778;DHT22;71547;50.146;8.174;2023-12-20T14:02:02;6.00;99.90
1778;DHT22;71547;50.146;8.174;2023-12-20T14:04:30;6.00;99.90
1778;DHT22;71547;50.146;8.174;2023-12-20T14:07:10;6.00;99.90
1778;DHT22;71547;50.146;8.174;2023-12-20T14:09:39;6.00;99.90
1778;DHT22;71547;50.146;8.174;2023-12-20T14:12:07;6.00;99.90
1778;DHT22;71547;50.146;8.174;2023-12-20T14:14:35;5.90;99.90
1778;DHT22;71547;50.146;8.174;2023-12-20T14:17:03;6.00;99.90
1778;DHT22;71547;50.146;8.174;2023-12-20T14:19:30;5.90;99.90
1778;DHT22;71547;50.146;8.174;2023-12-20T14:21:57;5.80;99.90
1778;DHT22;71547;50.146;8.174;2023-12-20T14:24:29;5.80;99.90
1778;DHT22;71547;50.146;8.174;2023-12-20T14:26:56;5.80;99.90
1778;DHT22;71547;50.146;8.174;2023-12-20T14:29:25;5.80;99.90
1778;DHT22;71547;50.146;8.174;2023-12-20T14:31:53;5.80;99.90
1778;DHT22;71547;50.146;8.174;2023-12-20T14:34:20;5.80;99.90
1778;DHT22;71547;50.146;8.174;2023-12-20T14:36:51;5.80;99.90
1778;DHT22;71547;50.146;8.174;2023-12-20T14:39:19;5.70;99.90
1778;DHT22;71547;50.146;8.174;2023-12-20T14:41:49;5.70;99.90
1778;DHT22;71547;50.146;8.174;2023-12-20T14:44:16;5.70;99.90
1778;DHT22;71547;50.146;8.174;2023-12-20T14:46:44;5.70;99.90
1778;DHT22;71547;50.146;8.174;2023-12-20T14:49:11;5.60;99.90
1778;DHT22;71547;50.146;8.174;2023-12-20T14:51:38;5.60;99.90
1778;DHT22;71547;50.146;8.174;2023-12-20T14:54:05;5.60;99.90
1778;DHT22;71547;50.146;8.174;2023-12-20T14:56:37;5.60;99.90
1778;DHT22;71547;50.146;8.174;2023-12-20T14:59:05;5.60;99.90
1778;DHT22;71547;50.146;8.174;2023-12-20T15:01:32;5.60;99.90
1778;DHT22;71547;50.146;8.174;2023-12-20T15:04:00;5.60;99.90
1778;DHT22;71547;50.146;8.174;2023-12-20T15:06:28;5.60;99.90
1778;DHT22;71547;50.146;8.174;2023-12-20T15:08:55;5.60;99.90
1778;DHT22;71547;50.146;8.174;2023-12-20T15:11:22;5.60;99.90
1778;DHT22;71547;50.146;8.174;2023-12-20T15:13:49;5.50;99.90
1778;DHT22;71547;50.146;8.174;2023-12-20T15:16:23;5.50;99.90
1778;DHT22;71547;50.146;8.174;2023-12-20T15:18:50;5.50;99.90
1778;DHT22;71547;50.146;8.174;2023-12-20T15:21:18;5.50;99.90
1778;DHT22;71547;50.146;8.174;2023-12-20T15:23:45;5.50;99.90
1778;DHT22;71547;50.146;8.174;2023-12-20T15:26:32;5.50;99.90
1778;DHT22;71547;50.146;8.174;2023-12-20T15:28:59;5.50;99.90
1778;DHT22;71547;50.146;8.174;2023-12-20T15:31:29;5.50;99.90
1778;DHT22;71547;50.146;8.174;2023-12-20T15:33:56;5.50;99.90
1778;DHT22;71547;50.146;8.174;2023-12-20T15:36:25;5.50;99.90
1778;DHT22;71547;50.146;8.174;2023-12-20T15:38:52;5.50;99.90
1778;DHT22;71547;50.146;8.174;2023-12-20T15:41:20;5.50;99.90
1778;DHT22;71547;50.146;8.174;2023-12-20T15:43:47;5.50;99.90
1778;DHT22;71547;50.146;8.174;2023-12-20T15:46:15;5.50;99.90
1778;DHT22;71547;50.146;8.174;2023-12-20T15:48:43;5.50;99.90
1778;DHT22;71547;50.146;8.174;2023-12-20T15:51:10;5.60;99.90
1778;DHT22;71547;50.146;8.174;2023-12-20T15:53:42;5.50;99.90
1778;DHT22;71547;50.146;8.174;2023-12-20T15:56:11;5.50;99.90
1778;DHT22;71547;50.146;8.174;2023-12-20T15:58:43;5.50;99.90
1778;DHT22;71547;50.146;8.174;2023-12-20T16:01:10;5.60;99.90
1778;DHT22;71547;50.146;8.174;2023-12-20T16:03:42;5.50;99.90
1778;DHT22;71547;50.146;8.174;2023-12-20T16:06:24;5.50;99.90
1778;DHT22;71547;50.146;8.174;2023-12-20T16:08:54;5.50;99.90
1778;DHT22;71547;50.146;8.174;2023-12-20T16:11:29;5.60;99.90